createdAt,value
2022-12-31T00:02:23.325Z,76.59
2022-12-31T00:04:50.545Z,76.52
2022-12-31T00:07:17.532Z,76.49
2022-12-31T00:09:44.591Z,76.87
2022-12-31T00:12:11.643Z,77.06
2022-12-31T00:14:38.776Z,77.40
2022-12-31T00:17:05.840Z,77.50
2022-12-31T00:19:33.059Z,78.12
2022-12-31T00:22:03.054Z,78.36
2022-12-31T00:24:31.249Z,78.61
2022-12-31T00:26:58.285Z,79.33
2022-12-31T00:29:25.462Z,79.34
2022-12-31T00:31:52.412Z,79.40
2022-12-31T00:34:19.644Z,79.36
2022-12-31T00:36:46.708Z,79.77
2022-12-31T00:39:13.829Z,79.88
2022-12-31T00:41:40.908Z,79.92
2022-12-31T00:44:08.140Z,80.17
2022-12-31T00:49:01.302Z,80.48
2022-12-31T00:51:29.115Z,80.50
2022-12-31T00:53:57.273Z,80.53
2022-12-31T00:56:27.924Z,80.78
2022-12-31T00:58:55.267Z,80.93
2022-12-31T01:01:25.669Z,81.02
2022-12-31T01:03:56.543Z,81.66
2022-12-31T01:06:24.421Z,81.80
2022-12-31T01:08:53.397Z,81.88
2022-12-31T01:11:22.740Z,82.14
2022-12-31T01:13:59.037Z,82.18
2022-12-31T01:16:53.270Z,83.00
2022-12-31T01:19:29.393Z,82.51
2022-12-31T01:21:56.787Z,82.54
2022-12-31T01:24:24.066Z,82.85
2022-12-31T01:26:51.973Z,82.88
2022-12-31T01:29:19.134Z,83.14
2022-12-31T01:31:46.428Z,83.29
2022-12-31T01:34:13.618Z,83.40
2022-12-31T01:36:40.716Z,83.52
2022-12-31T01:39:09.689Z,83.61
2022-12-31T01:41:39.293Z,83.81
2022-12-31T01:44:12.674Z,83.95
2022-12-31T01:46:42.400Z,83.70
2022-12-31T01:49:22.853Z,83.91
2022-12-31T01:52:02.585Z,84.12
2022-12-31T01:54:33.468Z,84.57
2022-12-31T01:57:01.118Z,84.52
2022-12-31T01:59:30.459Z,85.05
2022-12-31T02:01:58.365Z,85.26
2022-12-31T02:04:26.959Z,85.12
2022-12-31T02:06:58.669Z,85.28
2022-12-31T02:09:26.164Z,85.39
2022-12-31T02:11:53.561Z,85.29
2022-12-31T02:14:30.831Z,85.11
2022-12-31T02:17:19.478Z,85.11
2022-12-31T02:20:23.624Z,85.20
2022-12-31T02:23:08.907Z,85.63
2022-12-31T02:25:55.775Z,85.75
2022-12-31T02:29:03.133Z,86.06
2022-12-31T02:31:37.800Z,85.99
2022-12-31T02:34:13.855Z,86.81
2022-12-31T02:36:44.531Z,86.75
2022-12-31T02:39:12.640Z,86.72
2022-12-31T02:41:52.175Z,86.67
2022-12-31T02:44:34.716Z,86.91
2022-12-31T02:47:28.249Z,87.35
2022-12-31T02:50:36.981Z,87.59
2022-12-31T02:53:21.904Z,87.44
2022-12-31T02:56:21.441Z,87.50
2022-12-31T02:59:46.892Z,88.09
2022-12-31T03:02:19.771Z,87.88
2022-12-31T03:04:56.296Z,87.59
2022-12-31T03:07:29.804Z,87.40
2022-12-31T03:09:56.989Z,87.36
2022-12-31T03:12:46.043Z,87.16
2022-12-31T03:15:22.908Z,87.24
2022-12-31T03:18:05.366Z,87.47
2022-12-31T03:20:54.361Z,87.43
2022-12-31T03:23:29.392Z,87.26
2022-12-31T03:25:57.415Z,87.27
2022-12-31T03:28:27.034Z,87.19
2022-12-31T03:31:04.422Z,87.13
2022-12-31T03:33:37.947Z,86.98
2022-12-31T03:36:11.841Z,86.88
2022-12-31T03:38:39.263Z,86.52
2022-12-31T03:41:06.834Z,86.20
2022-12-31T03:43:34.018Z,85.96
2022-12-31T03:46:01.721Z,86.08
2022-12-31T03:48:28.933Z,85.42
2022-12-31T03:50:55.937Z,84.46
2022-12-31T03:53:23.301Z,83.51
2022-12-31T03:55:54.126Z,83.02
2022-12-31T03:58:21.992Z,82.89
2022-12-31T04:00:50.228Z,82.66
2022-12-31T04:03:17.441Z,82.50
2022-12-31T04:05:44.610Z,82.41
2022-12-31T04:08:11.616Z,82.76
2022-12-31T04:10:38.767Z,82.64
2022-12-31T04:13:05.850Z,82.28
2022-12-31T04:15:33.031Z,81.46
2022-12-31T04:18:00.209Z,81.30
2022-12-31T04:20:27.327Z,81.42
2022-12-31T04:22:54.270Z,81.44
2022-12-31T04:25:21.387Z,81.67
2022-12-31T04:27:48.582Z,81.70
2022-12-31T04:30:15.839Z,82.10
2022-12-31T04:32:42.882Z,81.92
2022-12-31T04:35:10.876Z,81.29
2022-12-31T04:37:37.987Z,80.98
2022-12-31T04:40:07.103Z,80.90
2022-12-31T04:42:35.252Z,80.76
2022-12-31T04:45:02.682Z,80.58
2022-12-31T04:47:29.914Z,80.73
2022-12-31T04:49:56.983Z,81.03
2022-12-31T04:52:24.064Z,80.86
2022-12-31T04:54:51.109Z,80.55
2022-12-31T04:57:18.303Z,80.65
2022-12-31T04:59:45.339Z,80.68
2022-12-31T05:02:12.781Z,81.27
2022-12-31T05:04:40.005Z,81.26
2022-12-31T05:07:07.276Z,81.56
2022-12-31T05:09:34.389Z,81.54
2022-12-31T05:12:01.467Z,81.80
2022-12-31T05:14:28.511Z,82.31
2022-12-31T05:16:56.024Z,81.85
2022-12-31T05:19:23.065Z,80.90
2022-12-31T05:22:10.145Z,79.82
2022-12-31T05:24:37.310Z,79.39
2022-12-31T05:27:04.346Z,78.52
2022-12-31T05:29:31.428Z,78.00
2022-12-31T05:31:58.543Z,77.93
2022-12-31T05:34:25.576Z,77.67
2022-12-31T05:36:53.212Z,77.74
2022-12-31T05:39:21.317Z,77.68
2022-12-31T05:41:48.282Z,77.53
2022-12-31T05:44:15.393Z,77.68
2022-12-31T05:46:42.454Z,77.94
2022-12-31T05:49:09.469Z,77.85
2022-12-31T05:51:36.489Z,78.01
2022-12-31T05:54:04.071Z,78.06
2022-12-31T05:56:31.085Z,78.32
2022-12-31T05:58:58.212Z,77.91
2022-12-31T06:01:25.312Z,77.53
2022-12-31T06:03:52.607Z,77.54
2022-12-31T06:06:19.732Z,77.36
2022-12-31T06:08:51.684Z,77.54
2022-12-31T06:11:18.890Z,77.44
2022-12-31T06:13:45.870Z,77.47
2022-12-31T06:16:13.484Z,77.50
2022-12-31T06:18:40.570Z,77.50
2022-12-31T06:21:07.781Z,77.43
2022-12-31T06:23:34.991Z,77.66
2022-12-31T06:26:05.552Z,77.69
2022-12-31T06:28:33.131Z,77.46
2022-12-31T06:31:05.914Z,77.44
2022-12-31T06:33:33.636Z,77.29
2022-12-31T06:36:03.145Z,77.38
2022-12-31T06:38:32.431Z,77.07
2022-12-31T06:41:06.569Z,76.11
2022-12-31T06:43:35.330Z,75.59
2022-12-31T06:46:03.697Z,75.11
2022-12-31T06:48:31.084Z,74.50
2022-12-31T06:51:04.543Z,74.00
2022-12-31T06:53:31.527Z,73.82
2022-12-31T06:56:06.076Z,73.62
2022-12-31T06:58:33.562Z,73.42
2022-12-31T07:01:05.222Z,73.00
2022-12-31T07:04:01.725Z,72.79
2022-12-31T07:06:38.199Z,72.61
2022-12-31T07:09:10.790Z,71.67
2022-12-31T07:11:46.518Z,70.35
2022-12-31T07:14:53.983Z,70.31
2022-12-31T07:17:54.804Z,69.64
2022-12-31T07:20:22.394Z,68.07
2022-12-31T07:22:49.835Z,68.07
2022-12-31T07:25:18.281Z,68.48
2022-12-31T07:28:20.417Z,68.50
2022-12-31T07:31:17.426Z,68.33
2022-12-31T07:34:15.900Z,66.51
2022-12-31T07:37:14.728Z,66.41
2022-12-31T07:39:46.841Z,66.35
2022-12-31T07:42:25.581Z,65.95
2022-12-31T07:45:05.769Z,65.75
2022-12-31T07:47:33.375Z,65.75
2022-12-31T07:50:00.902Z,64.96
2022-12-31T07:52:28.241Z,64.74
2022-12-31T07:54:55.489Z,65.15
2022-12-31T07:57:29.789Z,64.10
2022-12-31T08:00:13.551Z,63.75
2022-12-31T08:03:04.863Z,63.88
2022-12-31T08:05:44.190Z,63.27
2022-12-31T08:08:29.272Z,62.73
2022-12-31T08:11:15.786Z,63.65
2022-12-31T08:13:43.423Z,64.26
2022-12-31T08:16:13.591Z,64.92
2022-12-31T08:18:41.061Z,63.64
2022-12-31T08:21:30.999Z,63.30
2022-12-31T08:24:20.172Z,63.33
2022-12-31T08:27:00.481Z,61.84
2022-12-31T08:29:27.465Z,61.13
2022-12-31T08:32:12.319Z,61.29
2022-12-31T08:34:55.871Z,60.45
2022-12-31T08:37:22.756Z,60.43
2022-12-31T08:40:28.318Z,60.15
2022-12-31T08:43:10.452Z,59.86
2022-12-31T08:45:58.003Z,59.42
2022-12-31T08:48:33.191Z,58.96
2022-12-31T08:51:00.420Z,58.76
2022-12-31T08:53:27.833Z,57.97
2022-12-31T08:56:15.694Z,57.46
2022-12-31T08:59:00.950Z,57.02
2022-12-31T09:01:36.345Z,56.07
2022-12-31T09:04:20.482Z,54.92
2022-12-31T09:06:58.954Z,53.34
2022-12-31T09:09:42.512Z,53.44
2022-12-31T09:12:32.881Z,55.35
2022-12-31T09:15:12.002Z,55.57
2022-12-31T09:17:46.104Z,54.94
2022-12-31T09:20:45.350Z,55.85
2022-12-31T09:23:13.536Z,56.21
2022-12-31T09:26:10.112Z,56.16
2022-12-31T09:28:58.801Z,57.26
2022-12-31T09:31:52.227Z,56.62
2022-12-31T09:34:22.223Z,56.34
2022-12-31T09:36:54.704Z,55.67
2022-12-31T09:39:35.720Z,55.65
2022-12-31T09:43:01.474Z,55.80
2022-12-31T09:45:47.001Z,55.61
2022-12-31T09:48:41.614Z,55.71
2022-12-31T09:51:56.229Z,55.05
2022-12-31T09:54:26.035Z,53.75
2022-12-31T09:57:13.074Z,53.19
2022-12-31T09:59:58.512Z,52.21
2022-12-31T10:02:48.764Z,51.36
2022-12-31T10:05:18.906Z,51.44
2022-12-31T10:08:19.563Z,51.54
2022-12-31T10:10:57.783Z,50.69
2022-12-31T10:13:44.332Z,51.05
2022-12-31T10:16:41.766Z,50.28
2022-12-31T10:19:27.443Z,50.91
2022-12-31T10:22:02.913Z,51.28
2022-12-31T10:25:01.074Z,50.33
2022-12-31T10:27:43.707Z,50.36
2022-12-31T10:30:19.820Z,49.92
2022-12-31T10:33:13.114Z,50.11
2022-12-31T10:35:50.878Z,49.67
2022-12-31T10:38:36.434Z,49.38
2022-12-31T10:41:49.410Z,49.25
2022-12-31T10:44:45.192Z,48.94
2022-12-31T10:47:24.420Z,48.98
2022-12-31T10:50:12.171Z,49.39
2022-12-31T10:52:45.477Z,50.16
2022-12-31T10:55:49.778Z,49.13
2022-12-31T10:58:58.019Z,48.37
2022-12-31T11:01:33.022Z,48.26
2022-12-31T11:04:12.210Z,48.77
2022-12-31T11:06:48.546Z,49.53
2022-12-31T11:09:38.770Z,50.43
2022-12-31T11:12:16.821Z,50.37
2022-12-31T11:15:03.821Z,50.58
2022-12-31T11:17:36.739Z,50.72
2022-12-31T11:20:40.737Z,50.60
2022-12-31T11:23:31.527Z,50.47
2022-12-31T11:26:40.860Z,50.18
2022-12-31T11:29:23.025Z,49.88
2022-12-31T11:32:02.291Z,49.45
2022-12-31T11:35:03.935Z,50.17
2022-12-31T11:37:41.734Z,50.64
2022-12-31T11:40:33.552Z,50.47
2022-12-31T11:43:22.825Z,51.29
2022-12-31T11:46:17.012Z,50.59
2022-12-31T11:49:00.844Z,51.07
2022-12-31T11:51:27.890Z,50.75
2022-12-31T11:54:39.041Z,52.50
2022-12-31T11:57:24.735Z,51.89
2022-12-31T11:59:57.998Z,52.31
2022-12-31T12:02:34.400Z,52.58
2022-12-31T12:05:11.506Z,50.87
2022-12-31T12:07:39.061Z,50.86
2022-12-31T12:10:31.767Z,51.19
2022-12-31T12:13:13.646Z,52.16
2022-12-31T12:15:44.493Z,50.81
2022-12-31T12:18:34.113Z,50.43
2022-12-31T12:21:05.831Z,50.56
2022-12-31T12:23:33.096Z,49.90
2022-12-31T12:26:00.230Z,51.17
2022-12-31T12:28:30.831Z,52.09
2022-12-31T12:31:01.985Z,52.71
2022-12-31T12:33:41.320Z,52.60
2022-12-31T12:36:11.088Z,56.13
2022-12-31T12:38:39.270Z,56.76
2022-12-31T12:41:11.614Z,57.16
2022-12-31T12:43:40.122Z,56.98
2022-12-31T12:46:30.657Z,57.12
2022-12-31T12:48:59.822Z,57.04
2022-12-31T12:51:35.830Z,56.07
2022-12-31T12:54:37.138Z,56.59
2022-12-31T12:57:24.553Z,57.71
2022-12-31T13:00:29.907Z,55.47
2022-12-31T13:03:27.070Z,53.38
2022-12-31T13:06:03.397Z,53.64
2022-12-31T13:09:00.143Z,55.78
2022-12-31T13:11:39.761Z,54.54
2022-12-31T13:14:30.998Z,53.06
2022-12-31T13:17:21.238Z,51.43
2022-12-31T13:20:26.287Z,50.92
2022-12-31T13:23:21.306Z,52.23
2022-12-31T13:26:02.073Z,50.93
2022-12-31T13:28:31.924Z,51.95
2022-12-31T13:31:06.788Z,53.94
2022-12-31T13:33:50.338Z,54.83
2022-12-31T13:36:21.471Z,54.66
2022-12-31T13:38:53.672Z,54.65
2022-12-31T13:41:26.610Z,56.05
2022-12-31T13:44:12.451Z,56.75
2022-12-31T13:46:46.030Z,54.06
2022-12-31T13:49:24.988Z,56.38
2022-12-31T13:52:16.796Z,57.86
2022-12-31T13:54:54.525Z,57.69
2022-12-31T13:58:16.613Z,55.92
2022-12-31T14:00:49.295Z,56.73
2022-12-31T14:03:44.277Z,57.56
2022-12-31T14:06:24.181Z,58.72
2022-12-31T14:08:53.570Z,59.70
2022-12-31T14:11:39.419Z,60.12
2022-12-31T14:14:29.663Z,60.58
2022-12-31T14:17:19.772Z,60.63
2022-12-31T14:20:17.928Z,62.02
2022-12-31T14:23:20.201Z,63.06
2022-12-31T14:25:57.402Z,64.50
2022-12-31T14:28:33.061Z,66.33
2022-12-31T14:31:13.882Z,67.57
2022-12-31T14:33:55.079Z,69.34
2022-12-31T14:36:34.365Z,70.14
2022-12-31T14:39:26.321Z,70.47
2022-12-31T14:42:09.073Z,72.18
2022-12-31T14:44:43.067Z,74.55
2022-12-31T14:47:18.960Z,75.63
2022-12-31T14:50:11.023Z,74.19
2022-12-31T14:53:04.406Z,72.69
2022-12-31T14:55:34.301Z,71.47
2022-12-31T15:00:57.016Z,69.76
2022-12-31T15:03:41.210Z,69.29
2022-12-31T15:06:15.084Z,70.09
2022-12-31T15:09:08.248Z,69.55
2022-12-31T15:11:49.722Z,69.48
2022-12-31T15:14:38.490Z,69.31
2022-12-31T15:17:24.038Z,71.85
2022-12-31T15:20:16.932Z,73.16
2022-12-31T15:22:50.425Z,73.00
2022-12-31T15:25:31.697Z,73.94
2022-12-31T15:28:05.683Z,73.87
2022-12-31T15:30:44.858Z,74.08
2022-12-31T15:33:29.833Z,74.47
2022-12-31T15:35:58.587Z,74.40
2022-12-31T15:38:33.311Z,74.84
2022-12-31T15:41:01.256Z,75.54
2022-12-31T15:43:37.071Z,75.37
2022-12-31T15:46:16.570Z,75.42
2022-12-31T15:49:04.970Z,75.11
2022-12-31T15:51:42.601Z,75.51
2022-12-31T15:54:23.192Z,75.89
2022-12-31T15:56:52.113Z,76.11
2022-12-31T15:59:21.565Z,76.26
2022-12-31T16:01:49.192Z,76.47
2022-12-31T16:04:22.909Z,76.36
2022-12-31T16:06:51.396Z,76.56
2022-12-31T16:09:29.190Z,76.99
2022-12-31T16:11:59.312Z,77.57
2022-12-31T16:14:37.609Z,78.22
2022-12-31T16:17:06.316Z,79.53
2022-12-31T16:19:52.313Z,80.65
2022-12-31T16:22:26.935Z,80.67
2022-12-31T16:25:29.669Z,81.70
2022-12-31T16:27:50.137Z,83.32
2022-12-31T16:30:32.295Z,84.33
2022-12-31T16:33:03.836Z,84.41
2022-12-31T16:35:39.387Z,84.53
2022-12-31T16:38:19.747Z,84.77
2022-12-31T16:41:01.728Z,85.36
2022-12-31T16:43:35.809Z,85.90
2022-12-31T16:46:19.589Z,86.12
2022-12-31T16:48:57.361Z,85.80
2022-12-31T16:51:32.561Z,86.23
2022-12-31T16:54:02.160Z,86.17
2022-12-31T16:56:37.959Z,86.27
2022-12-31T16:59:31.926Z,86.19
2022-12-31T17:02:04.913Z,86.56
2022-12-31T17:04:32.216Z,86.50
2022-12-31T17:07:25.317Z,86.75
2022-12-31T17:10:07.628Z,86.94
2022-12-31T17:13:01.036Z,87.39
2022-12-31T17:15:40.484Z,87.65
2022-12-31T17:18:08.569Z,88.13
2022-12-31T17:20:36.742Z,88.23
2022-12-31T17:23:09.455Z,88.52
2022-12-31T17:25:38.462Z,89.40
2022-12-31T17:28:23.426Z,90.01
2022-12-31T17:30:51.387Z,90.56
2022-12-31T17:33:18.396Z,91.34
2022-12-31T17:35:46.588Z,91.48
2022-12-31T17:38:22.616Z,92.27
2022-12-31T17:40:53.694Z,92.70
2022-12-31T17:43:23.955Z,92.85
2022-12-31T17:45:51.974Z,93.53
2022-12-31T17:48:20.585Z,93.72
2022-12-31T17:50:56.675Z,94.12
2022-12-31T17:53:23.779Z,94.30
2022-12-31T17:55:53.538Z,94.51
2022-12-31T17:58:29.635Z,94.44
2022-12-31T18:00:58.161Z,94.35
2022-12-31T18:03:25.533Z,94.51
2022-12-31T18:05:52.634Z,94.31
2022-12-31T18:08:19.740Z,94.10
2022-12-31T18:10:47.153Z,93.69
2022-12-31T18:13:20.407Z,93.43
2022-12-31T18:15:47.342Z,93.16
2022-12-31T18:18:25.538Z,93.19
2022-12-31T18:20:58.835Z,93.16
2022-12-31T18:23:46.509Z,93.48
2022-12-31T18:26:18.788Z,93.66
2022-12-31T18:28:46.699Z,93.48
2022-12-31T18:31:25.582Z,93.12
2022-12-31T18:33:54.653Z,92.72
2022-12-31T18:36:23.095Z,92.28
2022-12-31T18:38:51.083Z,92.04
2022-12-31T18:41:20.709Z,91.80
2022-12-31T18:43:48.350Z,91.68
2022-12-31T18:46:20.553Z,91.41
2022-12-31T18:48:47.885Z,91.37
2022-12-31T18:51:23.974Z,91.61
2022-12-31T18:53:53.703Z,91.61
2022-12-31T18:56:22.304Z,91.79
2022-12-31T18:58:49.408Z,91.85
2022-12-31T19:01:25.232Z,91.89
2022-12-31T19:03:52.733Z,91.96
2022-12-31T19:06:19.779Z,92.07
2022-12-31T19:08:46.911Z,91.79
2022-12-31T19:11:15.289Z,91.75
2022-12-31T19:13:42.552Z,92.25
2022-12-31T19:16:10.280Z,92.58
2022-12-31T19:18:37.851Z,92.74
2022-12-31T19:21:05.165Z,92.73
2022-12-31T19:23:32.364Z,92.77
2022-12-31T19:25:59.425Z,93.32
2022-12-31T19:28:27.857Z,93.20
2022-12-31T19:30:56.067Z,93.42
2022-12-31T19:33:24.734Z,93.98
2022-12-31T19:35:51.886Z,94.17
2022-12-31T19:38:26.517Z,94.68
2022-12-31T19:40:54.975Z,94.61
2022-12-31T19:43:23.807Z,95.20
2022-12-31T19:45:52.995Z,95.53
2022-12-31T19:48:28.760Z,95.76
2022-12-31T19:50:59.810Z,96.62
2022-12-31T19:53:28.215Z,96.98
2022-12-31T19:55:55.393Z,96.93
2022-12-31T19:58:28.589Z,97.79
2022-12-31T20:01:02.346Z,98.16
2022-12-31T20:03:32.840Z,98.89
2022-12-31T20:06:06.232Z,99.01
2022-12-31T20:08:34.565Z,98.88
2022-12-31T20:11:13.510Z,99.14
2022-12-31T20:13:42.751Z,99.38
2022-12-31T20:16:12.456Z,99.63
2022-12-31T20:18:41.212Z,99.96
2022-12-31T20:21:15.045Z,100.00
2022-12-31T20:23:42.305Z,100.00
2022-12-31T20:26:09.980Z,100.00
2022-12-31T20:28:37.893Z,100.00
2022-12-31T20:31:09.828Z,100.00
2022-12-31T20:33:37.171Z,100.00
2022-12-31T20:36:05.857Z,100.00
2022-12-31T20:38:32.906Z,100.00
2022-12-31T20:41:20.427Z,100.00
2022-12-31T20:43:48.164Z,100.00
2022-12-31T20:46:20.876Z,100.00
2022-12-31T20:48:50.163Z,100.00
2022-12-31T20:51:18.257Z,100.00
2022-12-31T20:53:47.916Z,100.00
2022-12-31T20:56:15.957Z,100.00
2022-12-31T20:58:43.737Z,100.00
2022-12-31T21:01:11.407Z,100.00
2022-12-31T21:06:28.668Z,100.00
2022-12-31T21:08:57.755Z,99.72
2022-12-31T21:11:43.496Z,99.33
2022-12-31T21:14:10.609Z,98.99
2022-12-31T21:16:37.610Z,98.54
2022-12-31T21:19:05.664Z,98.39
2022-12-31T21:21:32.829Z,97.63
2022-12-31T21:23:59.852Z,96.50
2022-12-31T21:26:27.748Z,95.24
2022-12-31T21:28:54.839Z,94.65
2022-12-31T21:31:22.050Z,93.78
2022-12-31T21:33:49.501Z,93.25
2022-12-31T21:36:16.582Z,92.80
2022-12-31T21:38:44.464Z,89.04
2022-12-31T21:41:33.547Z,87.18
2022-12-31T21:44:01.610Z,86.11
2022-12-31T21:46:29.256Z,85.99
2022-12-31T21:48:58.645Z,85.62
2022-12-31T21:51:26.572Z,85.24
2022-12-31T21:53:53.597Z,84.99
2022-12-31T21:56:21.821Z,84.92
2022-12-31T21:59:13.658Z,84.49
2022-12-31T22:01:59.489Z,84.49
2022-12-31T22:07:14.146Z,84.21
2022-12-31T22:09:41.194Z,84.03
2022-12-31T22:12:08.289Z,83.72
2022-12-31T22:14:35.430Z,83.04
2022-12-31T22:17:02.410Z,82.29
2022-12-31T22:19:29.387Z,81.72
2022-12-31T22:21:56.503Z,81.49
2022-12-31T22:24:23.575Z,81.74
2022-12-31T22:26:52.222Z,82.19
2022-12-31T22:29:19.985Z,81.78
2022-12-31T22:31:47.400Z,81.51
2022-12-31T22:34:14.630Z,81.22
2022-12-31T22:36:41.756Z,80.69
2022-12-31T22:39:44.787Z,80.79
2022-12-31T22:42:02.200Z,80.91
2022-12-31T22:44:29.413Z,80.75
2022-12-31T22:46:56.503Z,80.51
2022-12-31T22:49:23.749Z,81.05
2022-12-31T22:51:57.299Z,81.02
2022-12-31T22:54:26.130Z,80.94
2022-12-31T22:56:53.272Z,80.90
2022-12-31T22:59:20.501Z,80.42
2022-12-31T23:01:48.350Z,80.28
2022-12-31T23:04:15.954Z,80.26
2022-12-31T23:06:46.240Z,80.12
2022-12-31T23:09:34.054Z,80.34
2022-12-31T23:12:01.762Z,80.17
2022-12-31T23:14:47.555Z,80.33
2022-12-31T23:17:36.758Z,80.00
2022-12-31T23:20:24.524Z,80.26
2022-12-31T23:23:09.688Z,80.25
2022-12-31T23:25:43.398Z,80.17
2022-12-31T23:28:28.335Z,79.77
2022-12-31T23:30:55.434Z,79.19
2022-12-31T23:33:26.619Z,78.59
2022-12-31T23:36:05.591Z,78.49
2022-12-31T23:38:32.670Z,78.53
2022-12-31T23:40:59.609Z,78.96
2022-12-31T23:43:26.716Z,78.96
2022-12-31T23:45:53.760Z,78.68
2022-12-31T23:48:20.934Z,78.15
2022-12-31T23:50:53.363Z,78.19
2022-12-31T23:53:25.116Z,78.10
2022-12-31T23:55:53.162Z,77.92
2022-12-31T23:58:21.275Z,77.93
